createdAt,value
2022-09-23T00:00:46.547Z,5.13
2022-09-23T00:03:14.626Z,5.95
2022-09-23T00:05:41.651Z,4.72
2022-09-23T00:08:10.864Z,4.78
2022-09-23T00:10:38.860Z,5.20
2022-09-23T00:13:06.342Z,4.22
2022-09-23T00:15:37.840Z,4.63
2022-09-23T00:18:04.994Z,4.05
2022-09-23T00:20:33.573Z,4.93
2022-09-23T00:23:00.704Z,5.38
2022-09-23T00:25:29.785Z,4.97
2022-09-23T00:27:56.763Z,5.63
2022-09-23T00:30:23.855Z,5.22
2022-09-23T00:32:52.964Z,5.70
2022-09-23T00:35:20.147Z,5.30
2022-09-23T00:37:46.955Z,6.05
2022-09-23T00:40:13.908Z,5.82
2022-09-23T00:42:51.332Z,6.68
2022-09-23T00:45:18.673Z,6.55
2022-09-23T00:48:05.862Z,6.57
2022-09-23T00:50:37.703Z,5.65
2022-09-23T00:53:07.013Z,6.10
2022-09-23T00:55:37.533Z,6.85
2022-09-23T00:58:06.027Z,7.35
2022-09-23T01:00:36.015Z,6.65
2022-09-23T01:03:05.254Z,6.88
2022-09-23T01:05:33.109Z,7.03
2022-09-23T01:08:00.731Z,6.70
2022-09-23T01:10:29.958Z,6.57
2022-09-23T01:13:19.129Z,6.63
2022-09-23T01:15:51.337Z,6.95
2022-09-23T01:18:21.340Z,7.03
2022-09-23T01:21:00.275Z,5.43
2022-09-23T01:23:36.326Z,6.38
2022-09-23T01:26:20.322Z,7.22
2022-09-23T01:28:50.346Z,6.78
2022-09-23T01:31:20.152Z,6.88
2022-09-23T01:33:52.182Z,6.88
2022-09-23T01:36:23.791Z,6.45
2022-09-23T01:38:59.192Z,6.30
2022-09-23T01:41:29.230Z,6.10
2022-09-23T01:43:59.041Z,6.47
2022-09-23T01:46:52.056Z,5.70
2022-09-23T01:49:52.173Z,5.72
2022-09-23T01:52:40.068Z,6.05
2022-09-23T01:55:23.374Z,6.40
2022-09-23T01:57:55.584Z,5.15
2022-09-23T02:00:23.168Z,6.20
2022-09-23T02:02:52.515Z,4.85
2022-09-23T02:05:25.620Z,5.18
2022-09-23T02:07:58.126Z,5.68
2022-09-23T02:10:25.195Z,4.55
2022-09-23T02:12:54.233Z,5.50
2022-09-23T02:15:23.698Z,5.65
2022-09-23T02:17:55.838Z,5.93
2022-09-23T02:20:25.070Z,5.95
2022-09-23T02:23:01.770Z,5.80
2022-09-23T02:25:37.867Z,6.47
2022-09-23T02:28:08.101Z,6.20
2022-09-23T02:30:40.568Z,6.38
2022-09-23T02:33:20.527Z,6.80
2022-09-23T02:35:48.998Z,7.60
2022-09-23T02:38:34.583Z,7.38
2022-09-23T02:41:07.504Z,7.22
2022-09-23T02:43:36.674Z,7.22
2022-09-23T02:46:04.752Z,6.53
2022-09-23T02:48:38.183Z,7.38
2022-09-23T02:51:05.282Z,6.68
2022-09-23T02:53:35.022Z,7.90
2022-09-23T02:56:02.502Z,7.13
2022-09-23T02:58:30.088Z,6.45
2022-09-23T03:01:05.155Z,6.90
2022-09-23T03:03:35.188Z,6.35
2022-09-23T03:06:05.299Z,5.45
2022-09-23T03:08:44.636Z,6.15
2022-09-23T03:11:13.191Z,5.57
2022-09-23T03:13:58.617Z,4.72
2022-09-23T03:16:28.626Z,5.30
2022-09-23T03:19:12.906Z,6.32
2022-09-23T03:21:46.609Z,5.82
2022-09-23T03:24:14.606Z,6.65
2022-09-23T03:26:44.190Z,6.55
2022-09-23T03:29:11.707Z,6.18
2022-09-23T03:31:42.815Z,5.80
2022-09-23T03:34:21.597Z,5.90
2022-09-23T03:37:03.514Z,5.43
2022-09-23T03:39:33.125Z,5.57
2022-09-23T03:42:02.670Z,5.22
2022-09-23T03:44:29.822Z,4.82
2022-09-23T03:47:02.429Z,5.30
2022-09-23T03:49:33.069Z,4.65
2022-09-23T03:52:01.068Z,5.80
2022-09-23T03:54:30.053Z,5.18
2022-09-23T03:56:58.465Z,5.50
2022-09-23T03:59:25.749Z,6.13
2022-09-23T04:01:53.341Z,6.28
2022-09-23T04:04:20.335Z,6.25
2022-09-23T04:06:47.155Z,5.38
2022-09-23T04:09:14.090Z,5.80
2022-09-23T04:11:41.047Z,5.90
2022-09-23T04:14:08.015Z,6.32
2022-09-23T04:16:35.426Z,5.38
2022-09-23T04:19:02.585Z,5.40
2022-09-23T04:21:31.223Z,6.00
2022-09-23T04:23:58.178Z,6.00
2022-09-23T04:26:25.223Z,6.15
2022-09-23T04:28:52.090Z,5.82
2022-09-23T04:31:19.127Z,5.88
2022-09-23T04:33:46.073Z,6.38
2022-09-23T04:36:12.882Z,6.15
2022-09-23T04:38:39.729Z,6.57
2022-09-23T04:41:09.574Z,5.82
2022-09-23T04:43:36.473Z,6.57
2022-09-23T04:46:05.536Z,6.75
2022-09-23T04:48:32.991Z,6.20
2022-09-23T04:51:07.118Z,6.63
2022-09-23T04:53:35.212Z,6.80
2022-09-23T04:56:02.772Z,6.07
2022-09-23T04:58:30.183Z,6.45
2022-09-23T05:01:01.715Z,7.00
2022-09-23T05:03:35.643Z,6.72
2022-09-23T05:08:29.821Z,6.05
2022-09-23T05:10:57.782Z,6.38
2022-09-23T05:13:24.797Z,6.20
2022-09-23T05:16:02.189Z,5.93
2022-09-23T05:18:33.066Z,5.70
2022-09-23T05:20:59.970Z,6.15
2022-09-23T05:23:27.586Z,6.53
2022-09-23T05:26:01.397Z,5.50
2022-09-23T05:28:32.932Z,6.65
2022-09-23T05:31:05.925Z,5.25
2022-09-23T05:33:33.590Z,6.38
2022-09-23T05:36:01.036Z,5.95
2022-09-23T05:38:28.607Z,5.97
2022-09-23T05:41:05.594Z,5.97
2022-09-23T05:43:32.776Z,5.68
2022-09-23T05:46:08.344Z,5.80
2022-09-23T05:48:36.556Z,5.90
2022-09-23T05:51:04.112Z,5.20
2022-09-23T05:53:33.141Z,5.35
2022-09-23T05:56:00.044Z,5.88
2022-09-23T05:58:28.047Z,6.03
2022-09-23T06:00:56.944Z,5.53
2022-09-23T06:03:26.864Z,5.40
2022-09-23T06:05:56.953Z,6.10
2022-09-23T06:08:23.920Z,5.75
2022-09-23T06:10:54.355Z,5.50
2022-09-23T06:13:21.825Z,5.47
2022-09-23T06:15:48.737Z,5.90
2022-09-23T06:18:15.733Z,5.43
2022-09-23T06:20:42.821Z,5.50
2022-09-23T06:23:11.075Z,5.68
2022-09-23T06:25:41.085Z,5.45
2022-09-23T06:28:12.286Z,5.18
2022-09-23T06:30:42.551Z,5.80
2022-09-23T06:33:10.125Z,5.60
2022-09-23T06:35:37.215Z,5.82
2022-09-23T06:38:08.066Z,5.93
2022-09-23T06:40:37.691Z,5.78
2022-09-23T06:43:04.704Z,5.80
2022-09-23T06:45:31.650Z,5.65
2022-09-23T06:47:58.584Z,5.70
2022-09-23T06:50:26.257Z,5.85
2022-09-23T06:52:56.433Z,5.75
2022-09-23T06:55:24.805Z,5.82
2022-09-23T06:57:51.739Z,5.40
2022-09-23T07:00:19.528Z,5.95
2022-09-23T07:02:49.421Z,5.57
2022-09-23T07:05:17.414Z,7.13
2022-09-23T07:07:44.801Z,5.05
2022-09-23T07:10:12.054Z,6.75
2022-09-23T07:12:39.384Z,5.78
2022-09-23T07:15:08.815Z,5.38
2022-09-23T07:17:35.927Z,5.85
2022-09-23T07:20:06.018Z,6.20
2022-09-23T07:22:33.142Z,6.43
2022-09-23T07:25:00.099Z,6.40
2022-09-23T07:27:28.091Z,6.28
2022-09-23T07:29:55.162Z,6.25
2022-09-23T07:32:22.896Z,6.15
2022-09-23T07:34:49.984Z,6.78
2022-09-23T07:37:17.746Z,5.95
2022-09-23T07:39:45.152Z,5.90
2022-09-23T07:42:14.483Z,6.28
2022-09-23T07:44:44.114Z,6.32
2022-09-23T07:47:11.170Z,6.32
2022-09-23T07:49:38.649Z,6.32
2022-09-23T07:52:05.802Z,5.80
2022-09-23T07:54:32.894Z,7.00
2022-09-23T07:57:00.280Z,6.63
2022-09-23T07:59:27.609Z,7.13
2022-09-23T08:01:56.716Z,6.32
2022-09-23T08:04:25.535Z,6.13
2022-09-23T08:07:00.342Z,5.25
2022-09-23T08:09:28.526Z,4.90
2022-09-23T08:11:55.718Z,5.85
2022-09-23T08:14:22.600Z,5.57
2022-09-23T08:16:49.757Z,5.20
2022-09-23T08:19:16.868Z,5.53
2022-09-23T08:21:46.305Z,6.32
2022-09-23T08:24:14.734Z,6.30
2022-09-23T08:26:41.851Z,6.43
2022-09-23T08:29:12.080Z,6.85
2022-09-23T08:31:39.019Z,6.82
2022-09-23T08:34:06.637Z,6.45
2022-09-23T08:36:34.381Z,7.13
2022-09-23T08:39:01.353Z,7.35
2022-09-23T08:41:46.777Z,8.13
2022-09-23T08:44:20.681Z,7.60
2022-09-23T08:47:06.403Z,8.65
2022-09-23T08:49:39.616Z,8.18
2022-09-23T08:52:10.186Z,8.57
2022-09-23T08:54:37.403Z,9.85
2022-09-23T08:57:05.724Z,9.73
2022-09-23T08:59:42.529Z,9.38
2022-09-23T09:02:20.983Z,9.57
2022-09-23T09:04:52.898Z,9.18
2022-09-23T09:07:41.709Z,10.55
2022-09-23T09:10:22.640Z,10.63
2022-09-23T09:12:51.924Z,9.25
2022-09-23T09:15:24.697Z,9.73
2022-09-23T09:18:01.673Z,10.15
2022-09-23T09:20:39.934Z,9.95
2022-09-23T09:23:27.042Z,10.90
2022-09-23T09:26:01.612Z,10.30
2022-09-23T09:28:31.229Z,11.43
2022-09-23T09:31:02.691Z,11.98
2022-09-23T09:33:37.016Z,11.32
2022-09-23T09:36:15.969Z,11.52
2022-09-23T09:38:44.158Z,10.25
2022-09-23T09:41:16.555Z,11.73
2022-09-23T09:43:55.086Z,10.35
2022-09-23T09:46:40.674Z,11.20
2022-09-23T09:49:11.981Z,12.00
2022-09-23T09:51:42.602Z,11.38
2022-09-23T09:54:19.470Z,10.38
2022-09-23T09:59:35.261Z,11.13
2022-09-23T10:02:31.778Z,10.98
2022-09-23T10:05:11.033Z,10.93
2022-09-23T10:07:37.917Z,10.60
2022-09-23T10:10:31.688Z,11.02
2022-09-23T10:13:14.568Z,9.85
2022-09-23T10:15:45.041Z,9.80
2022-09-23T10:18:19.686Z,9.68
2022-09-23T10:20:50.170Z,10.80
2022-09-23T10:23:22.918Z,10.10
2022-09-23T10:25:57.619Z,10.45
2022-09-23T10:28:43.402Z,10.68
2022-09-23T10:31:15.003Z,8.98
2022-09-23T10:33:47.030Z,8.77
2022-09-23T10:36:18.000Z,8.88
2022-09-23T10:38:47.659Z,8.02
2022-09-23T10:41:42.490Z,7.65
2022-09-23T10:44:39.779Z,8.25
2022-09-23T10:47:23.269Z,7.20
2022-09-23T10:49:51.803Z,7.78
2022-09-23T10:52:18.640Z,6.97
2022-09-23T10:55:04.184Z,7.40
2022-09-23T10:57:39.785Z,6.90
2022-09-23T11:00:22.658Z,7.47
2022-09-23T11:02:52.637Z,6.40
2022-09-23T11:05:28.601Z,7.00
2022-09-23T11:07:55.398Z,6.50
2022-09-23T11:10:46.536Z,6.43
2022-09-23T11:13:16.712Z,5.97
2022-09-23T11:15:48.969Z,6.38
2022-09-23T11:18:16.763Z,5.68
2022-09-23T11:20:43.642Z,5.47
2022-09-23T11:23:27.508Z,5.32
2022-09-23T11:26:09.228Z,4.30
2022-09-23T11:28:57.596Z,4.88
2022-09-23T11:31:27.347Z,4.97
2022-09-23T11:33:57.332Z,4.85
2022-09-23T11:36:24.271Z,5.25
2022-09-23T11:38:52.345Z,4.78
2022-09-23T11:41:30.149Z,4.72
2022-09-23T11:44:04.484Z,4.97
2022-09-23T11:46:34.651Z,5.00
2022-09-23T11:49:09.677Z,4.50
2022-09-23T11:51:42.711Z,4.70
2022-09-23T11:54:20.820Z,4.60
2022-09-23T11:56:53.326Z,4.53
2022-09-23T11:59:40.707Z,4.15
2022-09-23T12:02:30.617Z,3.38
2022-09-23T12:07:40.277Z,3.55
2022-09-23T12:10:08.213Z,3.83
2022-09-23T12:12:47.950Z,3.80
2022-09-23T12:15:27.451Z,3.55
2022-09-23T12:18:23.146Z,3.42
2022-09-23T12:21:45.865Z,3.53
2022-09-23T12:27:06.430Z,3.42
2022-09-23T12:29:35.895Z,3.33
2022-09-23T12:32:12.556Z,3.40
2022-09-23T12:34:43.859Z,3.40
2022-09-23T12:37:11.036Z,3.40
2022-09-23T12:39:38.689Z,3.33
2022-09-23T12:42:13.754Z,3.42
2022-09-23T12:44:42.396Z,3.10
2022-09-23T12:47:21.166Z,3.25
2022-09-23T12:49:48.506Z,3.28
2022-09-23T12:52:18.185Z,3.35
2022-09-23T12:54:46.765Z,2.95
2022-09-23T12:57:19.929Z,2.95
2022-09-23T13:00:05.955Z,3.20
2022-09-23T13:02:33.591Z,3.25
2022-09-23T13:05:42.023Z,3.13
2022-09-23T13:08:17.314Z,2.75
2022-09-23T13:10:54.805Z,2.30
2022-09-23T13:13:21.963Z,2.28
2022-09-23T13:15:49.049Z,2.10
2022-09-23T13:18:18.935Z,2.53
2022-09-23T13:20:46.977Z,2.38
2022-09-23T13:23:27.814Z,2.45
2022-09-23T13:25:56.303Z,2.50
2022-09-23T13:28:38.447Z,2.60
2022-09-23T13:31:14.204Z,2.70
2022-09-23T13:33:46.486Z,2.50
2022-09-23T13:36:14.896Z,2.35
2022-09-23T13:38:42.277Z,2.35
2022-09-23T13:41:14.278Z,2.90
2022-09-23T13:43:42.696Z,2.88
2022-09-23T13:46:13.449Z,2.75
2022-09-23T13:48:43.892Z,3.05
2022-09-23T13:51:11.674Z,2.42
2022-09-23T13:53:38.706Z,2.90
2022-09-23T13:56:05.605Z,2.97
2022-09-23T13:58:33.242Z,3.05
2022-09-23T14:01:00.280Z,2.60
2022-09-23T14:03:36.806Z,2.42
2022-09-23T14:06:17.991Z,2.83
2022-09-23T14:08:49.067Z,3.00
2022-09-23T14:11:17.402Z,2.97
2022-09-23T14:13:53.406Z,2.97
2022-09-23T14:16:25.985Z,3.00
2022-09-23T14:19:05.519Z,3.00
2022-09-23T14:21:43.631Z,2.83
2022-09-23T14:24:17.895Z,2.72
2022-09-23T14:26:49.244Z,2.47
2022-09-23T14:29:23.514Z,2.72
2022-09-23T14:32:00.886Z,2.70
2022-09-23T14:37:29.532Z,2.80
2022-09-23T14:39:59.286Z,3.17
2022-09-23T14:42:30.389Z,3.00
2022-09-23T14:47:32.457Z,3.15
2022-09-23T14:50:21.011Z,3.30
2022-09-23T14:53:00.960Z,3.38
2022-09-23T14:55:32.506Z,3.40
2022-09-23T14:58:07.356Z,3.28
2022-09-23T15:00:38.282Z,3.10
2022-09-23T15:03:14.720Z,2.95
2022-09-23T15:05:49.490Z,2.95
2022-09-23T15:08:24.685Z,2.72
2022-09-23T15:10:54.976Z,2.95
2022-09-23T15:13:32.199Z,3.20
2022-09-23T15:16:02.488Z,3.30
2022-09-23T15:18:39.707Z,2.97
2022-09-23T15:21:17.280Z,3.17
2022-09-23T15:23:48.736Z,2.80
2022-09-23T15:26:19.348Z,3.40
2022-09-23T15:28:50.264Z,3.05
2022-09-23T15:31:21.668Z,3.40
2022-09-23T15:33:52.484Z,2.92
2022-09-23T15:36:27.531Z,2.90
2022-09-23T15:39:07.852Z,3.30
2022-09-23T15:41:40.223Z,3.20
2022-09-23T15:44:16.166Z,3.90
2022-09-23T15:46:49.189Z,3.70
2022-09-23T15:49:26.433Z,3.90
2022-09-23T15:51:54.113Z,3.50
2022-09-23T15:54:23.868Z,3.60
2022-09-23T15:56:51.029Z,3.58
2022-09-23T15:59:18.194Z,3.33
2022-09-23T16:01:45.993Z,3.80
2022-09-23T16:04:15.670Z,3.72
2022-09-23T16:07:09.710Z,3.42
2022-09-23T16:10:02.501Z,3.45
2022-09-23T16:12:56.343Z,3.15
2022-09-23T16:15:29.818Z,3.35
2022-09-23T16:18:30.450Z,3.20
2022-09-23T16:28:16.134Z,3.42
2022-09-23T16:30:43.330Z,2.92
2022-09-23T16:36:29.805Z,3.55
2022-09-23T16:39:00.645Z,3.47
2022-09-23T16:42:14.769Z,3.50
2022-09-23T16:44:42.297Z,3.67
2022-09-23T16:45:53.833Z,3.35
2022-09-23T16:47:53.843Z,3.80
2022-09-23T16:56:53.534Z,3.50
2022-09-23T17:03:09.201Z,3.67
2022-09-23T17:09:02.988Z,3.50
2022-09-23T17:11:45.733Z,3.50
2022-09-23T17:14:48.071Z,4.00
2022-09-23T17:17:29.544Z,3.60
2022-09-23T17:20:17.503Z,3.90
2022-09-23T17:22:53.297Z,3.65
2022-09-23T17:25:44.315Z,4.30
2022-09-23T17:28:29.747Z,3.97
2022-09-23T17:36:51.697Z,3.83
2022-09-23T17:39:42.499Z,3.60
2022-09-23T17:45:37.204Z,4.50
2022-09-23T17:48:09.858Z,4.50
2022-09-23T17:57:05.677Z,4.60
2022-09-23T18:00:20.305Z,4.20
2022-09-23T18:03:15.272Z,4.00
2022-09-23T18:12:33.703Z,4.85
2022-09-23T18:15:43.243Z,4.63
2022-09-23T18:18:10.293Z,4.03
2022-09-23T18:21:18.937Z,4.88
2022-09-23T18:23:43.705Z,4.93
2022-09-23T18:26:30.415Z,4.38
2022-09-23T18:29:02.450Z,4.10
2022-09-23T18:31:43.835Z,4.03
2022-09-23T18:37:21.673Z,3.72
2022-09-23T18:39:57.381Z,3.83
2022-09-23T18:45:39.345Z,3.47
2022-09-23T18:48:39.239Z,3.80
2022-09-23T18:51:47.345Z,3.83
2022-09-23T18:54:45.252Z,3.50
2022-09-23T19:00:21.620Z,3.45
2022-09-23T19:02:53.596Z,3.35
2022-09-23T19:05:23.531Z,3.40
2022-09-23T19:11:28.646Z,3.67
2022-09-23T19:14:28.081Z,3.60
2022-09-23T19:17:11.828Z,3.05
2022-09-23T19:22:37.486Z,3.80
2022-09-23T19:25:47.051Z,3.33
2022-09-23T19:28:22.348Z,3.40
2022-09-23T19:31:02.134Z,3.40
2022-09-23T19:33:55.864Z,3.75
2022-09-23T19:40:02.578Z,4.07
2022-09-23T19:46:01.204Z,3.85
2022-09-23T19:49:02.554Z,4.20
2022-09-23T19:51:53.920Z,4.25
2022-09-23T19:54:24.773Z,3.63
2022-09-23T19:57:10.050Z,4.38
2022-09-23T19:59:43.656Z,3.88
2022-09-23T20:02:13.533Z,4.45
2022-09-23T20:10:14.522Z,3.47
2022-09-23T20:12:44.335Z,4.10
2022-09-23T20:15:11.974Z,4.30
2022-09-23T20:17:40.138Z,4.13
2022-09-23T20:20:07.806Z,4.55
2022-09-23T20:22:35.130Z,3.85
2022-09-23T20:25:02.640Z,4.38
2022-09-23T20:27:34.421Z,4.75
2022-09-23T20:30:07.709Z,4.03
2022-09-23T20:32:36.945Z,4.30
2022-09-23T20:35:06.964Z,3.88
2022-09-23T20:37:35.785Z,3.33
2022-09-23T20:40:07.435Z,3.97
2022-09-23T20:42:35.120Z,3.88
2022-09-23T20:45:04.663Z,3.50
2022-09-23T20:47:31.489Z,2.70
2022-09-23T20:49:58.627Z,3.05
2022-09-23T20:52:25.484Z,3.25
2022-09-23T20:54:52.759Z,3.50
2022-09-23T20:57:20.377Z,3.17
2022-09-23T20:59:50.203Z,3.33
2022-09-23T21:02:17.246Z,4.00
2022-09-23T21:04:46.358Z,4.05
2022-09-23T21:07:20.367Z,3.38
2022-09-23T21:09:47.370Z,4.00
2022-09-23T21:12:17.834Z,3.78
2022-09-23T21:14:45.694Z,3.60
2022-09-23T21:17:12.551Z,3.85
2022-09-23T21:19:40.054Z,4.05
2022-09-23T21:22:06.944Z,3.90
2022-09-23T21:25:08.476Z,4.97
2022-09-23T21:27:20.506Z,3.80
2022-09-23T21:29:47.388Z,4.22
2022-09-23T21:32:14.110Z,4.30
2022-09-23T21:34:41.416Z,4.30
2022-09-23T21:37:08.468Z,4.50
2022-09-23T21:39:38.040Z,4.40
2022-09-23T21:42:05.977Z,4.10
2022-09-23T21:44:33.194Z,3.95
2022-09-23T21:47:00.041Z,4.18
2022-09-23T21:49:26.884Z,3.92
2022-09-23T21:51:58.936Z,4.07
2022-09-23T21:54:25.909Z,3.90
2022-09-23T21:56:57.039Z,3.72
2022-09-23T21:59:23.860Z,3.97
2022-09-23T22:01:54.173Z,4.03
2022-09-23T22:04:21.296Z,3.60
2022-09-23T22:06:49.161Z,4.00
2022-09-23T22:09:21.439Z,3.75
2022-09-23T22:12:09.715Z,3.90
2022-09-23T22:14:37.020Z,3.50
2022-09-23T22:17:04.831Z,4.07
2022-09-23T22:19:33.297Z,3.80
2022-09-23T22:22:00.409Z,3.78
2022-09-23T22:24:27.559Z,3.78
2022-09-23T22:26:54.385Z,4.05
2022-09-23T22:29:39.760Z,3.53
2022-09-23T22:32:28.761Z,3.45
2022-09-23T22:34:56.092Z,4.22
2022-09-23T22:37:27.442Z,4.15
2022-09-23T22:42:24.274Z,3.80
2022-09-23T22:44:51.150Z,3.38
2022-09-23T22:47:18.631Z,3.72
2022-09-23T22:49:48.832Z,3.72
2022-09-23T22:52:26.719Z,3.28
2022-09-23T22:54:55.947Z,3.22
2022-09-23T22:57:25.008Z,3.80
2022-09-23T22:59:52.177Z,3.20
2022-09-23T23:02:21.519Z,4.20
2022-09-23T23:04:48.715Z,3.95
2022-09-23T23:07:19.923Z,3.30
2022-09-23T23:09:50.428Z,2.95
2022-09-23T23:12:20.127Z,3.70
2022-09-23T23:14:48.097Z,2.97
2022-09-23T23:17:15.117Z,3.55
2022-09-23T23:19:44.313Z,3.58
2022-09-23T23:22:13.686Z,3.20
2022-09-23T23:24:40.481Z,3.08
2022-09-23T23:27:07.275Z,2.92
2022-09-23T23:29:34.063Z,3.20
2022-09-23T23:32:00.931Z,3.33
2022-09-23T23:34:28.181Z,3.80
2022-09-23T23:36:57.381Z,3.10
2022-09-23T23:39:24.841Z,3.67
2022-09-23T23:41:55.533Z,3.20
2022-09-23T23:44:26.225Z,3.70
2022-09-23T23:46:54.661Z,3.40
2022-09-23T23:49:21.903Z,3.33
2022-09-23T23:51:48.941Z,3.15
2022-09-23T23:54:15.809Z,3.20
2022-09-23T23:56:45.473Z,3.10
2022-09-23T23:59:12.764Z,3.25
